Time;durP1;ratioP1;P1;durP2;ratioP2;P2;SDS_P1;SDS_P2;PMS_P1;PMS_P2;Temp;Humidity;BMP_temperature;BMP_pressure;BME280_temperature;BME280_humidity;BME280_pressure;Samples;Min_cycle;Max_cycle;Signal;HPM_P1;HPM_P2
2020/12/21 00:01:26;;;;;;;1.38;0.88;;;;;;;;;;5066005;28;20024;-79
2020/12/21 00:03:53;;;;;;;2.53;0.95;;;;;;;;;;5075207;28;20036;-78
2020/12/21 00:06:19;;;;;;;1.75;0.88;;;;;;;;;;5082132;28;20037;-79
2020/12/21 00:08:44;;;;;;;1.15;0.70;;;;;;;;;;5069223;28;20062;-77
2020/12/21 00:11:11;;;;;;;1.65;0.95;;;;;;;;;;5064698;28;20097;-78
2020/12/21 00:13:42;;;;;;;0.98;0.90;;;;;;;;;;5089389;28;20463;-76
2020/12/21 00:16:09;;;;;;;1.23;0.80;;;;;;;;;;5071114;28;20122;-80
2020/12/21 00:18:35;;;;;;;1.05;0.85;;;;;;;;;;5060854;28;20134;-79
2020/12/21 00:21:01;;;;;;;1.00;0.70;;;;;;;;;;5059257;28;20063;-79
2020/12/21 00:23:27;;;;;;;1.27;0.95;;;;;;;;;;5059108;28;20033;-78
2020/12/21 00:25:53;;;;;;;1.20;0.77;;;;;;;;;;5076727;28;20028;-77
2020/12/21 00:28:19;;;;;;;1.80;0.80;;;;;;;;;;5076448;28;20024;-77
2020/12/21 00:30:45;;;;;;;2.17;0.80;;;;;;;;;;5076403;28;20119;-79
2020/12/21 00:33:11;;;;;;;2.15;1.10;;;;;;;;;;5058852;28;20115;-79
2020/12/21 00:35:37;;;;;;;1.30;1.00;;;;;;;;;;5058892;28;20028;-78
2020/12/21 00:38:03;;;;;;;0.98;0.80;;;;;;;;;;5058469;28;20178;-77
2020/12/21 00:40:29;;;;;;;1.38;0.90;;;;;;;;;;5058655;28;20055;-79
2020/12/21 00:42:55;;;;;;;2.08;0.73;;;;;;;;;;5058605;28;20423;-79
2020/12/21 00:45:21;;;;;;;0.98;0.80;;;;;;;;;;5058233;28;20059;-79
2020/12/21 00:47:47;;;;;;;1.48;1.00;;;;;;;;;;5058858;28;20325;-78
2020/12/21 00:50:13;;;;;;;0.98;0.88;;;;;;;;;;5058293;28;20028;-79
2020/12/21 00:52:39;;;;;;;1.77;1.08;;;;;;;;;;5058062;28;20463;-79
2020/12/21 00:55:05;;;;;;;1.85;1.02;;;;;;;;;;5057251;28;20056;-79
2020/12/21 00:57:32;;;;;;;1.13;1.00;;;;;;;;;;5058458;28;20105;-79
2020/12/21 00:59:58;;;;;;;2.05;0.80;;;;;;;;;;5058321;28;20028;-79
2020/12/21 01:02:24;;;;;;;0.88;0.85;;;;;;;;;;5075659;28;20086;-79
2020/12/21 01:04:51;;;;;;;2.40;1.25;;;;;;;;;;5058407;28;20177;-79
2020/12/21 01:07:17;;;;;;;1.23;0.82;;;;;;;;;;5058244;28;20025;-78
2020/12/21 01:09:46;;;;;;;2.42;1.17;;;;;;;;;;5058228;28;20039;-79
2020/12/21 01:12:12;;;;;;;1.00;0.80;;;;;;;;;;5058495;28;20024;-78
2020/12/21 01:14:38;;;;;;;0.70;0.70;;;;;;;;;;5058362;28;20062;-78
2020/12/21 01:17:04;;;;;;;1.75;0.93;;;;;;;;;;5057758;28;20074;-79
2020/12/21 01:19:30;;;;;;;1.65;0.85;;;;;;;;;;5069117;28;20085;-79
2020/12/21 01:21:57;;;;;;;1.33;1.00;;;;;;;;;;5077911;28;20028;-78
2020/12/21 01:24:23;;;;;;;1.40;0.90;;;;;;;;;;5062049;28;20090;-79
2020/12/21 01:26:49;;;;;;;1.75;0.90;;;;;;;;;;5058138;28;20032;-79
2020/12/21 01:29:15;;;;;;;1.88;0.82;;;;;;;;;;5058163;28;20523;-79
2020/12/21 01:31:41;;;;;;;1.90;1.10;;;;;;;;;;5057848;28;20284;-77
2020/12/21 01:34:07;;;;;;;1.67;0.75;;;;;;;;;;5081152;28;20122;-78
2020/12/21 01:36:33;;;;;;;1.75;1.05;;;;;;;;;;5095639;28;20032;-79
2020/12/21 01:38:59;;;;;;;1.20;0.93;;;;;;;;;;5078094;28;20084;-79
2020/12/21 01:41:25;;;;;;;1.17;0.80;;;;;;;;;;5077744;28;20036;-79
2020/12/21 01:43:55;;;;;;;0.95;0.93;;;;;;;;;;5095649;28;20028;-79
2020/12/21 01:46:22;;;;;;;2.35;1.00;;;;;;;;;;5077614;28;20123;-77
2020/12/21 01:48:48;;;;;;;0.90;0.80;;;;;;;;;;5077903;28;20123;-78
2020/12/21 01:51:24;;;;;;;1.48;0.82;;;;;;;;;;5094933;28;20423;-77
2020/12/21 01:53:50;;;;;;;1.73;1.00;;;;;;;;;;5077804;28;20038;-78
2020/12/21 01:56:17;;;;;;;1.98;1.42;;;;;;;;;;5066617;28;20032;-80
2020/12/21 01:58:44;;;;;;;0.93;0.85;;;;;;;;;;5075201;28;20119;-78
2020/12/21 02:01:12;;;;;;;2.42;0.75;;;;;;;;;;5075085;28;20033;-77
2020/12/21 02:03:38;;;;;;;0.88;0.63;;;;;;;;;;5057713;28;20077;-77
2020/12/21 02:06:04;;;;;;;2.15;1.10;;;;;;;;;;5061217;28;20070;-78
2020/12/21 02:08:30;;;;;;;2.05;0.90;;;;;;;;;;5075050;28;20013;-78
2020/12/21 02:10:56;;;;;;;1.02;0.75;;;;;;;;;;5096819;28;20031;-78
2020/12/21 02:13:22;;;;;;;1.35;1.05;;;;;;;;;;5073136;28;20032;-80
2020/12/21 02:15:48;;;;;;;0.80;0.65;;;;;;;;;;5061203;28;20044;-80
2020/12/21 02:18:14;;;;;;;1.10;0.90;;;;;;;;;;5078359;28;20203;-78
2020/12/21 02:20:40;;;;;;;1.23;0.75;;;;;;;;;;5078824;28;20032;-79
2020/12/21 02:23:06;;;;;;;0.85;0.80;;;;;;;;;;5061356;28;20086;-78
2020/12/21 02:25:32;;;;;;;1.17;0.93;;;;;;;;;;5061557;28;20032;-78
2020/12/21 02:27:58;;;;;;;2.20;1.00;;;;;;;;;;5089776;28;20027;-78
2020/12/21 02:30:24;;;;;;;2.28;0.90;;;;;;;;;;5104286;28;20335;-81
2020/12/21 02:32:50;;;;;;;1.50;1.00;;;;;;;;;;5104235;28;20027;-80
2020/12/21 02:35:16;;;;;;;1.13;0.93;;;;;;;;;;5105450;28;20441;-79
2020/12/21 02:37:42;;;;;;;1.08;0.90;;;;;;;;;;5102464;28;20067;-79
2020/12/21 02:40:08;;;;;;;0.85;0.60;;;;;;;;;;5101561;28;20031;-80
2020/12/21 02:42:35;;;;;;;1.08;1.00;;;;;;;;;;5118875;28;20035;-77
2020/12/21 02:45:01;;;;;;;1.45;1.00;;;;;;;;;;5100172;28;20114;-79
2020/12/21 02:47:27;;;;;;;2.22;1.10;;;;;;;;;;5118698;28;20088;-79
2020/12/21 02:49:53;;;;;;;3.47;1.48;;;;;;;;;;5118593;28;20033;-80
2020/12/21 02:52:19;;;;;;;1.35;1.25;;;;;;;;;;5100822;28;20346;-80
2020/12/21 02:54:48;;;;;;;3.25;1.00;;;;;;;;;;5100509;28;20070;-77
2020/12/21 02:57:14;;;;;;;1.15;0.98;;;;;;;;;;5084464;28;20490;-78
2020/12/21 02:59:41;;;;;;;1.13;0.93;;;;;;;;;;5093510;28;20039;-79
2020/12/21 03:02:07;;;;;;;1.83;1.08;;;;;;;;;;5073172;28;20024;-78
2020/12/21 03:04:33;;;;;;;1.70;0.90;;;;;;;;;;5093165;28;20035;-79
2020/12/21 03:07:00;;;;;;;1.60;0.95;;;;;;;;;;5060165;28;20032;-78
2020/12/21 03:09:26;;;;;;;1.60;0.95;;;;;;;;;;5060678;28;20347;-79
2020/12/21 03:11:52;;;;;;;0.88;0.80;;;;;;;;;;5059978;28;20024;-79
2020/12/21 03:14:18;;;;;;;1.25;0.80;;;;;;;;;;5060015;28;20039;-78
2020/12/21 03:16:44;;;;;;;1.67;0.90;;;;;;;;;;5059369;28;20343;-77
2020/12/21 03:19:10;;;;;;;1.55;1.40;;;;;;;;;;5059944;28;20064;-79
2020/12/21 03:21:36;;;;;;;1.73;1.13;;;;;;;;;;5060001;28;20075;-77
2020/12/21 03:24:02;;;;;;;1.30;0.90;;;;;;;;;;5059903;28;20113;-77
2020/12/21 03:26:29;;;;;;;1.60;1.15;;;;;;;;;;5077524;28;20122;-77
2020/12/21 03:28:55;;;;;;;1.77;1.02;;;;;;;;;;5077304;28;20032;-78
2020/12/21 03:31:21;;;;;;;1.23;0.93;;;;;;;;;;5059831;28;20028;-78
2020/12/21 03:33:47;;;;;;;1.15;0.85;;;;;;;;;;5060393;28;20040;-79
2020/12/21 03:36:13;;;;;;;1.38;1.00;;;;;;;;;;5059356;28;20128;-79
2020/12/21 03:38:39;;;;;;;0.77;0.77;;;;;;;;;;5058722;28;20502;-76
2020/12/21 03:41:05;;;;;;;0.90;0.85;;;;;;;;;;5058828;28;20134;-76
2020/12/21 03:43:31;;;;;;;1.85;0.98;;;;;;;;;;5059472;28;20126;-76
2020/12/21 03:45:57;;;;;;;2.05;1.00;;;;;;;;;;5057847;28;20031;-78
2020/12/21 03:48:23;;;;;;;0.70;0.70;;;;;;;;;;5057883;28;20278;-79
2020/12/21 03:50:49;;;;;;;1.60;0.80;;;;;;;;;;5057665;28;20078;-79
2020/12/21 03:53:15;;;;;;;1.10;0.95;;;;;;;;;;5059300;28;20031;-79
2020/12/21 03:55:41;;;;;;;2.20;1.42;;;;;;;;;;5076928;28;20032;-80
2020/12/21 03:58:07;;;;;;;1.02;0.82;;;;;;;;;;5076598;28;20119;-78
2020/12/21 04:00:33;;;;;;;1.60;0.90;;;;;;;;;;5076625;28;20170;-78
2020/12/21 04:03:00;;;;;;;2.28;1.15;;;;;;;;;;5076499;28;20037;-77
2020/12/21 04:05:26;;;;;;;2.28;1.20;;;;;;;;;;5059460;28;20169;-79
2020/12/21 04:07:52;;;;;;;1.00;0.82;;;;;;;;;;5076716;28;20024;-77
2020/12/21 04:10:18;;;;;;;1.60;0.70;;;;;;;;;;5058595;28;20402;-79
2020/12/21 04:12:46;;;;;;;1.13;0.95;;;;;;;;;;5063293;28;20029;-78
2020/12/21 04:15:12;;;;;;;1.88;1.10;;;;;;;;;;5078640;28;20012;-79
2020/12/21 04:17:38;;;;;;;1.40;0.80;;;;;;;;;;5067658;28;20056;-78
2020/12/21 04:20:04;;;;;;;1.40;1.17;;;;;;;;;;5061058;28;20060;-79
2020/12/21 04:22:30;;;;;;;1.63;1.00;;;;;;;;;;5077360;28;20031;-79
2020/12/21 04:24:56;;;;;;;1.52;0.75;;;;;;;;;;5076979;28;20032;-77
2020/12/21 04:27:22;;;;;;;1.10;0.80;;;;;;;;;;5058575;28;20060;-78
2020/12/21 04:29:48;;;;;;;1.55;0.80;;;;;;;;;;5058680;28;20131;-78
2020/12/21 04:32:14;;;;;;;1.75;1.00;;;;;;;;;;5058724;28;20051;-77
2020/12/21 04:34:40;;;;;;;1.55;0.90;;;;;;;;;;5058830;28;20060;-78
2020/12/21 04:37:06;;;;;;;0.63;0.63;;;;;;;;;;5076088;28;20064;-77
2020/12/21 04:39:32;;;;;;;0.93;0.80;;;;;;;;;;5058686;28;20020;-77
2020/12/21 04:41:59;;;;;;;1.00;0.70;;;;;;;;;;5058902;28;20106;-77
2020/12/21 04:44:26;;;;;;;1.27;1.02;;;;;;;;;;5058033;28;20028;-78
2020/12/21 04:46:53;;;;;;;1.67;1.00;;;;;;;;;;5057840;28;20028;-77
2020/12/21 04:49:19;;;;;;;2.17;1.10;;;;;;;;;;5074791;28;20383;-77
2020/12/21 04:51:47;;;;;;;1.73;0.73;;;;;;;;;;5057368;28;20323;-77
2020/12/21 04:54:16;;;;;;;0.88;0.80;;;;;;;;;;5057039;28;20032;-78
2020/12/21 04:56:42;;;;;;;;;;;;;;;;;;5058879;28;20037;-78
2020/12/21 04:59:09;;;;;;;1.70;0.90;;;;;;;;;;5058038;28;19919;-79
2020/12/21 05:01:35;;;;;;;2.50;1.02;;;;;;;;;;5057920;28;20358;-79
2020/12/21 05:04:01;;;;;;;1.80;0.80;;;;;;;;;;5056505;28;20035;-79
2020/12/21 05:06:27;;;;;;;1.48;1.00;;;;;;;;;;5057141;28;20031;-78
2020/12/21 05:09:06;;;;;;;1.40;0.82;;;;;;;;;;5075241;28;20028;-78
2020/12/21 05:11:33;;;;;;;1.70;1.02;;;;;;;;;;5075739;28;20024;-77
2020/12/21 05:14:12;;;;;;;1.85;0.90;;;;;;;;;;5057829;28;20044;-78
2020/12/21 05:16:38;;;;;;;1.88;1.08;;;;;;;;;;5074839;28;20131;-76
2020/12/21 05:19:05;;;;;;;2.40;1.27;;;;;;;;;;5057600;28;20398;-76
2020/12/21 05:21:32;;;;;;;1.55;0.82;;;;;;;;;;5057744;28;20074;-77
2020/12/21 05:24:02;;;;;;;2.10;1.30;;;;;;;;;;5077861;28;20020;-78
2020/12/21 05:26:32;;;;;;;3.13;0.98;;;;;;;;;;5093403;28;20039;-79
2020/12/21 05:28:59;;;;;;;0.73;0.70;;;;;;;;;;5094260;28;20115;-78
2020/12/21 05:31:25;;;;;;;1.67;0.80;;;;;;;;;;5094527;28;20039;-79
2020/12/21 05:33:51;;;;;;;1.40;1.10;;;;;;;;;;5095670;28;20020;-81
2020/12/21 05:36:19;;;;;;;1.75;1.00;;;;;;;;;;5093924;28;20064;-77
2020/12/21 05:38:55;;;;;;;1.95;1.02;;;;;;;;;;5094700;28;20032;-78
2020/12/21 05:41:21;;;;;;;1.75;0.80;;;;;;;;;;5091518;28;20016;-79
2020/12/21 05:43:48;;;;;;;0.80;0.80;;;;;;;;;;5092111;28;20024;-79
2020/12/21 05:46:24;;;;;;;0.77;0.63;;;;;;;;;;5093643;28;20025;-77
2020/12/21 05:48:52;;;;;;;1.38;0.90;;;;;;;;;;5093774;28;20028;-79
2020/12/21 05:51:25;;;;;;;1.58;0.85;;;;;;;;;;5094673;28;20036;-78
2020/12/21 05:53:55;;;;;;;1.17;0.77;;;;;;;;;;5093881;28;20024;-76
2020/12/21 05:56:21;;;;;;;1.10;0.73;;;;;;;;;;5092554;28;20024;-76
2020/12/21 05:58:48;;;;;;;1.40;1.02;;;;;;;;;;5093704;28;20039;-76
2020/12/21 06:01:14;;;;;;;1.38;0.98;;;;;;;;;;5092950;28;20437;-79
2020/12/21 06:03:41;;;;;;;1.13;0.88;;;;;;;;;;5095728;28;20315;-78
2020/12/21 06:06:08;;;;;;;1.35;0.65;;;;;;;;;;5101937;28;20450;-78
2020/12/21 06:08:35;;;;;;;1.35;0.90;;;;;;;;;;5093112;28;20024;-79
2020/12/21 06:11:08;;;;;;;1.50;0.93;;;;;;;;;;5075050;28;20063;-80
2020/12/21 06:13:36;;;;;;;2.50;0.90;;;;;;;;;;5077633;28;20066;-78
2020/12/21 06:16:02;;;;;;;1.13;0.93;;;;;;;;;;5078348;28;20039;-79
2020/12/21 06:18:28;;;;;;;1.88;1.00;;;;;;;;;;5079709;28;20420;-79
2020/12/21 06:20:54;;;;;;;1.38;0.90;;;;;;;;;;5087007;28;20100;-78
2020/12/21 06:23:29;;;;;;;1.77;0.80;;;;;;;;;;5102607;28;20118;-77
2020/12/21 06:25:55;;;;;;;0.95;0.70;;;;;;;;;;5067906;28;20041;-78
2020/12/21 06:28:28;;;;;;;2.10;0.98;;;;;;;;;;5073556;28;20027;-83
2020/12/21 06:30:54;;;;;;;1.05;0.85;;;;;;;;;;5071577;28;20025;-76
2020/12/21 06:33:20;;;;;;;1.23;0.90;;;;;;;;;;5076647;28;20032;-77
2020/12/21 06:35:46;;;;;;;1.65;0.80;;;;;;;;;;5067231;28;20028;-76
2020/12/21 06:38:12;;;;;;;1.13;0.70;;;;;;;;;;5062803;28;20055;-78
2020/12/21 06:40:38;;;;;;;1.05;0.80;;;;;;;;;;5064454;28;20419;-78
2020/12/21 06:43:11;;;;;;;1.45;1.00;;;;;;;;;;5080653;28;20074;-78
2020/12/21 06:45:37;;;;;;;1.33;0.90;;;;;;;;;;5060502;28;20029;-79
2020/12/21 06:48:04;;;;;;;1.20;0.90;;;;;;;;;;5060686;28;20020;-79
2020/12/21 06:50:30;;;;;;;0.85;0.85;;;;;;;;;;5081242;28;20062;-77
2020/12/21 06:52:56;;;;;;;1.63;0.90;;;;;;;;;;5086089;28;20016;-77
2020/12/21 06:55:32;;;;;;;1.23;0.90;;;;;;;;;;5074752;28;20043;-77
2020/12/21 06:57:58;;;;;;;2.78;1.02;;;;;;;;;;5067404;28;20032;-79
2020/12/21 07:00:24;;;;;;;1.00;0.90;;;;;;;;;;5062433;28;20032;-79
2020/12/21 07:02:50;;;;;;;1.55;0.90;;;;;;;;;;5066205;28;20111;-78
2020/12/21 07:05:16;;;;;;;1.33;0.88;;;;;;;;;;5063641;28;20094;-79
2020/12/21 07:07:42;;;;;;;1.23;0.85;;;;;;;;;;5067713;28;20027;-77
2020/12/21 07:10:14;;;;;;;1.60;0.70;;;;;;;;;;5083943;28;20063;-79
2020/12/21 07:12:40;;;;;;;1.48;0.85;;;;;;;;;;5062789;28;20027;-78
2020/12/21 07:15:07;;;;;;;1.65;0.75;;;;;;;;;;5074990;28;20021;-78
2020/12/21 07:17:33;;;;;;;1.05;0.60;;;;;;;;;;5060260;28;20040;-78
2020/12/21 07:19:59;;;;;;;1.33;0.90;;;;;;;;;;5067603;28;20063;-78
2020/12/21 07:22:26;;;;;;;1.35;0.95;;;;;;;;;;5070703;28;20024;-79
2020/12/21 07:24:52;;;;;;;0.98;0.80;;;;;;;;;;5063272;28;20039;-77
2020/12/21 07:27:18;;;;;;;1.80;1.17;;;;;;;;;;5060488;28;20032;-79
2020/12/21 07:29:44;;;;;;;9.43;1.30;;;;;;;;;;5090332;28;20035;-79
2020/12/21 07:32:10;;;;;;;7.72;1.20;;;;;;;;;;5067704;28;20387;-80
2020/12/21 07:34:37;;;;;;;6.85;1.17;;;;;;;;;;5061843;28;20017;-76
2020/12/21 07:37:09;;;;;;;2.15;1.17;;;;;;;;;;5066760;28;20032;-79
2020/12/21 07:39:35;;;;;;;7.25;1.10;;;;;;;;;;5070623;28;20285;-75
2020/12/21 07:42:04;;;;;;;17.90;2.35;;;;;;;;;;5064161;28;20356;-76
2020/12/21 07:44:32;;;;;;;13.25;2.40;;;;;;;;;;5067618;28;20028;-76
2020/12/21 07:46:58;;;;;;;8.55;1.73;;;;;;;;;;5070340;28;20032;-79
2020/12/21 07:49:24;;;;;;;14.52;1.75;;;;;;;;;;5082223;28;20029;-78
2020/12/21 07:51:50;;;;;;;12.82;1.88;;;;;;;;;;5085415;28;20035;-78
2020/12/21 07:54:16;;;;;;;21.50;2.67;;;;;;;;;;5071528;28;20021;-78
2020/12/21 07:56:43;;;;;;;17.38;2.10;;;;;;;;;;5086010;28;20059;-78
2020/12/21 07:59:18;;;;;;;17.35;2.58;;;;;;;;;;5070742;28;20115;-78
2020/12/21 08:01:45;;;;;;;9.38;2.33;;;;;;;;;;5082666;28;20183;-78
2020/12/21 08:04:15;;;;;;;9.45;1.85;;;;;;;;;;5065975;28;20123;-80
2020/12/21 08:06:41;;;;;;;9.40;2.90;;;;;;;;;;5087322;28;20024;-80
2020/12/21 08:09:08;;;;;;;9.38;2.00;;;;;;;;;;5071988;28;20040;-77
2020/12/21 08:11:35;;;;;;;12.48;1.80;;;;;;;;;;5083387;28;20156;-75
2020/12/21 08:14:01;;;;;;;10.25;2.85;;;;;;;;;;5073819;28;20023;-79
2020/12/21 08:16:28;;;;;;;4.35;2.20;;;;;;;;;;5068423;28;20415;-78
2020/12/21 08:18:54;;;;;;;9.63;2.75;;;;;;;;;;5068952;28;20104;-77
2020/12/21 08:21:27;;;;;;;10.38;2.03;;;;;;;;;;5065221;28;20325;-78
2020/12/21 08:23:56;;;;;;;15.15;2.25;;;;;;;;;;5107531;28;20122;-79
2020/12/21 08:26:22;;;;;;;11.73;1.75;;;;;;;;;;5080904;28;20036;-78
2020/12/21 08:28:49;;;;;;;7.07;2.13;;;;;;;;;;5093208;28;20024;-78
2020/12/21 08:31:19;;;;;;;6.75;2.45;;;;;;;;;;5068226;28;20075;-80
2020/12/21 08:34:04;;;;;;;10.35;2.63;;;;;;;;;;5094587;28;20381;-78
2020/12/21 08:36:37;;;;;;;7.88;2.80;;;;;;;;;;5062894;28;20059;-77
2020/12/21 08:39:16;;;;;;;8.13;2.28;;;;;;;;;;5075436;28;20328;-80
2020/12/21 08:41:48;;;;;;;10.52;2.92;;;;;;;;;;5063373;28;20035;-78
2020/12/21 08:44:15;;;;;;;13.85;2.85;;;;;;;;;;5096613;28;20020;-77
2020/12/21 08:46:44;;;;;;;14.52;3.67;;;;;;;;;;5068805;28;20071;-81
2020/12/21 08:49:10;;;;;;;4.85;1.98;;;;;;;;;;5070356;28;20031;-81
2020/12/21 08:51:36;;;;;;;12.48;2.42;;;;;;;;;;5066850;28;20036;-80
2020/12/21 08:54:02;;;;;;;7.10;2.80;;;;;;;;;;5065074;28;20028;-80
2020/12/21 08:56:28;;;;;;;10.57;2.70;;;;;;;;;;5059868;28;20020;-81
2020/12/21 08:58:54;;;;;;;6.70;2.53;;;;;;;;;;5058513;28;20028;-79
2020/12/21 09:01:20;;;;;;;9.50;3.10;;;;;;;;;;5081593;28;20075;-80
2020/12/21 09:03:46;;;;;;;9.13;2.63;;;;;;;;;;5065215;28;20119;-81
2020/12/21 09:06:19;;;;;;;12.63;2.90;;;;;;;;;;5074949;28;20024;-77
2020/12/21 09:08:45;;;;;;;10.00;2.42;;;;;;;;;;5064825;28;20025;-77
2020/12/21 09:11:11;;;;;;;7.65;3.25;;;;;;;;;;5077845;28;20034;-78
2020/12/21 09:13:43;;;;;;;9.65;3.25;;;;;;;;;;5065993;28;20475;-79
2020/12/21 09:16:09;;;;;;;10.98;2.70;;;;;;;;;;5060624;28;20077;-79
2020/12/21 09:18:36;;;;;;;5.93;3.35;;;;;;;;;;5062210;28;20044;-79
2020/12/21 09:21:03;;;;;;;11.10;3.80;;;;;;;;;;5065570;28;20125;-79
2020/12/21 09:23:30;;;;;;;8.20;2.97;;;;;;;;;;5068782;28;20089;-78
2020/12/21 09:25:56;;;;;;;9.05;3.45;;;;;;;;;;5067186;28;20343;-80
2020/12/21 09:28:22;;;;;;;10.57;2.88;;;;;;;;;;5066165;28;20035;-77
2020/12/21 09:30:48;;;;;;;8.13;3.10;;;;;;;;;;5069536;28;20036;-76
2020/12/21 09:33:14;;;;;;;7.63;3.20;;;;;;;;;;5085878;28;20027;-75
2020/12/21 09:35:40;;;;;;;15.77;3.60;;;;;;;;;;5082200;28;20039;-79
2020/12/21 09:38:06;;;;;;;8.68;2.80;;;;;;;;;;5094662;28;20032;-79
2020/12/21 09:40:33;;;;;;;8.13;2.60;;;;;;;;;;5076814;28;20028;-81
2020/12/21 09:42:59;;;;;;;9.27;3.28;;;;;;;;;;5079546;28;20029;-78
2020/12/21 09:45:25;;;;;;;12.85;2.67;;;;;;;;;;5085601;28;20028;-79
2020/12/21 09:47:51;;;;;;;11.95;2.35;;;;;;;;;;5061775;28;20396;-81
2020/12/21 09:50:17;;;;;;;5.47;2.65;;;;;;;;;;5065474;28;20167;-77
2020/12/21 09:52:43;;;;;;;6.63;2.30;;;;;;;;;;5067894;28;20087;-79
2020/12/21 09:55:11;;;;;;;9.82;2.65;;;;;;;;;;5063173;28;20640;-78
2020/12/21 09:57:38;;;;;;;6.25;1.92;;;;;;;;;;5064897;28;20854;-79
2020/12/21 10:00:04;;;;;;;8.57;2.42;;;;;;;;;;5069810;28;20052;-80
2020/12/21 10:02:30;;;;;;;12.10;2.67;;;;;;;;;;5066478;28;20036;-81
2020/12/21 10:04:56;;;;;;;6.93;2.25;;;;;;;;;;5070077;28;20038;-80
2020/12/21 10:07:22;;;;;;;8.82;2.55;;;;;;;;;;5067344;28;20025;-81
2020/12/21 10:09:48;;;;;;;11.02;2.45;;;;;;;;;;5092299;28;20031;-77
2020/12/21 10:12:14;;;;;;;8.57;2.53;;;;;;;;;;5076806;28;20032;-79
2020/12/21 10:14:43;;;;;;;12.25;2.60;;;;;;;;;;5089999;28;20020;-80
2020/12/21 10:17:09;;;;;;;15.93;2.97;;;;;;;;;;5098114;28;20040;-79
2020/12/21 10:19:35;;;;;;;5.38;2.25;;;;;;;;;;5088179;28;20028;-80
2020/12/21 10:22:01;;;;;;;10.88;2.70;;;;;;;;;;5067162;28;20432;-76
2020/12/21 10:24:27;;;;;;;17.73;2.63;;;;;;;;;;5068696;28;20029;-76
2020/12/21 10:26:53;;;;;;;17.67;2.88;;;;;;;;;;5082811;28;20046;-78
2020/12/21 10:29:22;;;;;;;10.90;2.30;;;;;;;;;;5096754;28;20020;-80
2020/12/21 10:31:48;;;;;;;12.77;2.35;;;;;;;;;;5072534;28;20044;-77
2020/12/21 10:34:14;;;;;;;7.85;2.17;;;;;;;;;;5089220;28;20457;-81
2020/12/21 10:36:47;;;;;;;9.00;2.20;;;;;;;;;;5087687;28;20028;-79
2020/12/21 10:39:14;;;;;;;20.52;2.58;;;;;;;;;;5072791;28;20071;-75
2020/12/21 10:41:40;;;;;;;11.35;2.80;;;;;;;;;;5083593;28;20489;-80
2020/12/21 10:44:07;;;;;;;10.65;2.88;;;;;;;;;;5069387;28;20031;-78
2020/12/21 10:46:33;;;;;;;7.95;2.75;;;;;;;;;;5074441;28;20031;-80
2020/12/21 10:48:59;;;;;;;10.43;2.28;;;;;;;;;;5092923;28;20313;-80
2020/12/21 10:51:26;;;;;;;14.75;3.63;;;;;;;;;;5070755;28;20038;-77
2020/12/21 10:53:53;;;;;;;12.63;2.85;;;;;;;;;;5070282;28;20020;-80
2020/12/21 10:56:19;;;;;;;13.68;2.95;;;;;;;;;;5067219;28;20119;-81
2020/12/21 10:58:45;;;;;;;20.27;3.83;;;;;;;;;;5071906;28;20124;-78
2020/12/21 11:01:11;;;;;;;14.30;2.92;;;;;;;;;;5068582;28;20118;-79
2020/12/21 11:03:37;;;;;;;11.00;3.33;;;;;;;;;;5086241;28;20048;-78
2020/12/21 11:06:03;;;;;;;23.23;4.53;;;;;;;;;;5085879;28;20055;-80
2020/12/21 11:08:29;;;;;;;17.00;3.78;;;;;;;;;;5086671;28;20132;-80
2020/12/21 11:10:55;;;;;;;11.82;3.53;;;;;;;;;;5086436;28;20033;-80
2020/12/21 11:13:22;;;;;;;19.70;3.63;;;;;;;;;;5068685;28;20036;-79
2020/12/21 11:15:48;;;;;;;12.75;3.20;;;;;;;;;;5065504;28;20037;-79
2020/12/21 11:18:14;;;;;;;13.20;4.05;;;;;;;;;;5068087;28;20032;-76
2020/12/21 11:20:40;;;;;;;18.35;4.80;;;;;;;;;;5067554;28;20020;-80
2020/12/21 11:23:06;;;;;;;23.10;4.72;;;;;;;;;;5082333;28;20024;-80
2020/12/21 11:25:32;;;;;;;14.48;3.92;;;;;;;;;;5085255;28;20312;-77
2020/12/21 11:28:01;;;;;;;11.65;3.70;;;;;;;;;;5083536;28;20020;-78
2020/12/21 11:30:27;;;;;;;18.40;4.10;;;;;;;;;;5067949;28;20028;-81
2020/12/21 11:32:53;;;;;;;13.65;3.65;;;;;;;;;;5062929;28;20040;-77
2020/12/21 11:35:20;;;;;;;14.18;4.22;;;;;;;;;;5064604;28;20028;-77
2020/12/21 11:37:46;;;;;;;14.35;3.65;;;;;;;;;;5062672;28;20158;-79
2020/12/21 11:40:12;;;;;;;19.30;3.90;;;;;;;;;;5061366;28;20025;-77
2020/12/21 11:42:38;;;;;;;13.48;3.90;;;;;;;;;;5067208;28;20028;-76
2020/12/21 11:45:05;;;;;;;8.00;3.58;;;;;;;;;;5065356;28;20127;-76
2020/12/21 11:47:32;;;;;;;17.95;4.60;;;;;;;;;;5066210;28;20414;-79
2020/12/21 11:49:58;;;;;;;15.40;3.92;;;;;;;;;;5064647;28;20127;-79
2020/12/21 11:52:24;;;;;;;19.45;3.50;;;;;;;;;;5077320;28;20081;-78
2020/12/21 11:54:50;;;;;;;16.20;3.72;;;;;;;;;;5066810;28;20024;-77
2020/12/21 11:57:16;;;;;;;13.43;4.30;;;;;;;;;;5071249;28;20028;-80
2020/12/21 11:59:42;;;;;;;29.33;5.00;;;;;;;;;;5061614;28;20016;-78
2020/12/21 12:02:08;;;;;;;21.10;4.35;;;;;;;;;;5071975;28;20055;-78
2020/12/21 12:04:34;;;;;;;17.33;3.83;;;;;;;;;;5081350;28;20155;-78
2020/12/21 12:07:01;;;;;;;14.68;4.13;;;;;;;;;;5086017;28;20047;-81
2020/12/21 12:09:28;;;;;;;19.75;3.85;;;;;;;;;;5091136;28;20466;-78
2020/12/21 12:11:54;;;;;;;12.73;4.28;;;;;;;;;;5069558;28;20039;-83
2020/12/21 12:14:20;;;;;;;12.88;4.10;;;;;;;;;;5081998;28;20024;-79
2020/12/21 12:16:46;;;;;;;18.20;4.55;;;;;;;;;;5067982;28;20085;-80
2020/12/21 12:19:13;;;;;;;22.88;4.75;;;;;;;;;;5085137;28;20024;-79
2020/12/21 12:21:39;;;;;;;14.18;5.15;;;;;;;;;;5083895;28;20055;-76
2020/12/21 12:24:05;;;;;;;12.10;4.28;;;;;;;;;;5063869;28;20409;-80
2020/12/21 12:26:31;;;;;;;13.32;4.20;;;;;;;;;;5082052;28;20035;-78
2020/12/21 12:28:57;;;;;;;11.32;4.03;;;;;;;;;;5065089;28;20024;-78
2020/12/21 12:31:23;;;;;;;10.13;4.25;;;;;;;;;;5068002;28;20020;-77
2020/12/21 12:33:50;;;;;;;9.73;4.35;;;;;;;;;;5062461;28;20028;-78
2020/12/21 12:36:20;;;;;;;17.27;4.55;;;;;;;;;;5080036;28;20031;-82
2020/12/21 12:38:46;;;;;;;12.45;3.80;;;;;;;;;;5061732;28;20036;-77
2020/12/21 12:41:13;;;;;;;16.83;4.10;;;;;;;;;;5065385;28;20165;-75
2020/12/21 12:43:39;;;;;;;20.33;5.32;;;;;;;;;;5063623;28;20024;-76
2020/12/21 12:46:06;;;;;;;15.30;4.50;;;;;;;;;;5069573;28;20028;-81
2020/12/21 12:48:32;;;;;;;13.98;4.43;;;;;;;;;;5059326;28;20038;-80
2020/12/21 12:50:58;;;;;;;23.85;4.43;;;;;;;;;;5056914;28;20032;-77
2020/12/21 12:53:24;;;;;;;16.77;5.47;;;;;;;;;;5084101;28;20311;-77
2020/12/21 12:55:50;;;;;;;23.23;5.20;;;;;;;;;;5067755;28;20032;-76
2020/12/21 12:58:17;;;;;;;29.40;4.88;;;;;;;;;;5078998;28;20107;-74
2020/12/21 13:00:45;;;;;;;21.33;4.85;;;;;;;;;;5064661;28;20056;-76
2020/12/21 13:03:11;;;;;;;20.05;5.35;;;;;;;;;;5064055;28;20137;-78
2020/12/21 13:05:37;;;;;;;20.35;5.95;;;;;;;;;;5062305;28;20024;-78
2020/12/21 13:08:03;;;;;;;26.98;5.40;;;;;;;;;;5060607;28;20115;-75
2020/12/21 13:10:31;;;;;;;14.23;4.68;;;;;;;;;;5083543;28;20028;-78
2020/12/21 13:12:57;;;;;;;19.30;4.97;;;;;;;;;;5084628;28;20016;-79
2020/12/21 13:15:23;;;;;;;13.98;4.00;;;;;;;;;;5062470;28;20085;-77
2020/12/21 13:17:50;;;;;;;18.20;5.25;;;;;;;;;;5061718;28;20048;-77
2020/12/21 13:20:16;;;;;;;16.30;3.33;;;;;;;;;;5065484;28;20051;-79
2020/12/21 13:22:42;;;;;;;24.98;4.70;;;;;;;;;;5057576;28;20032;-78
2020/12/21 13:25:08;;;;;;;18.33;4.60;;;;;;;;;;5061289;28;20088;-77
2020/12/21 13:27:34;;;;;;;17.80;4.18;;;;;;;;;;5061850;28;20327;-81
2020/12/21 13:30:01;;;;;;;11.73;4.78;;;;;;;;;;5064668;28;20219;-76
2020/12/21 13:32:27;;;;;;;23.30;3.90;;;;;;;;;;5066114;28;20031;-81
2020/12/21 13:34:54;;;;;;;30.88;4.97;;;;;;;;;;5069650;28;20025;-79
2020/12/21 13:37:20;;;;;;;19.92;4.13;;;;;;;;;;5057995;28;20021;-81
2020/12/21 13:39:46;;;;;;;24.23;3.80;;;;;;;;;;5065117;28;20055;-78
2020/12/21 13:42:13;;;;;;;17.90;3.35;;;;;;;;;;5059378;28;20024;-78
2020/12/21 13:44:39;;;;;;;8.63;3.17;;;;;;;;;;5069599;28;20328;-80
2020/12/21 13:47:05;;;;;;;12.90;3.28;;;;;;;;;;5077930;28;20058;-78
2020/12/21 13:49:31;;;;;;;13.50;3.33;;;;;;;;;;5084431;28;20054;-77
2020/12/21 13:51:57;;;;;;;19.75;4.78;;;;;;;;;;5092220;28;20035;-78
2020/12/21 13:54:23;;;;;;;11.50;3.58;;;;;;;;;;5067637;28;20036;-80
2020/12/21 13:56:49;;;;;;;11.23;3.75;;;;;;;;;;5067662;28;20031;-78
2020/12/21 13:59:15;;;;;;;9.32;2.88;;;;;;;;;;5066087;28;20042;-79
2020/12/21 14:01:41;;;;;;;13.52;3.03;;;;;;;;;;5062529;28;20024;-80
2020/12/21 14:04:07;;;;;;;10.43;3.35;;;;;;;;;;5069309;28;20417;-79
2020/12/21 14:06:33;;;;;;;8.63;3.35;;;;;;;;;;5069384;28;20111;-78
2020/12/21 14:09:00;;;;;;;14.30;3.80;;;;;;;;;;5066871;28;20384;-77
2020/12/21 14:11:26;;;;;;;10.85;2.83;;;;;;;;;;5064285;28;20033;-78
2020/12/21 14:13:53;;;;;;;11.32;3.15;;;;;;;;;;5071953;28;20335;-78
2020/12/21 14:16:20;;;;;;;6.22;3.05;;;;;;;;;;5068374;28;20040;-78
2020/12/21 14:18:46;;;;;;;10.18;3.53;;;;;;;;;;5067869;28;20020;-82
2020/12/21 14:21:12;;;;;;;7.88;3.60;;;;;;;;;;5065834;28;20020;-78
2020/12/21 14:23:39;;;;;;;7.35;3.58;;;;;;;;;;5090574;28;20100;-81
2020/12/21 14:26:05;;;;;;;6.63;2.60;;;;;;;;;;5076674;28;20032;-80
2020/12/21 14:28:31;;;;;;;8.70;3.08;;;;;;;;;;5082295;28;20037;-80
2020/12/21 14:30:57;;;;;;;9.20;2.70;;;;;;;;;;5068001;28;20032;-80
2020/12/21 14:33:23;;;;;;;11.52;3.40;;;;;;;;;;5087249;28;20016;-80
2020/12/21 14:35:49;;;;;;;5.15;2.65;;;;;;;;;;5065602;28;20082;-81